Airfield :
LOGIN :

Register | Disclaimer

   EN    FR    IT 

 










Legend :    VFR   Marginal VFR   IFR   Intensive IFR   Very Intensive IFR
Visi :
Ceiling :
>= 8 km
>= 3000ft
5 to 8 km
1000 to 3000 ft
1500m to 5 km
500 to 1000 ft
800 to 1500m
200 to 500 ft
< 800m
< 200 ft
Symbols :   Thunderstorms  Fog  Heavy snow  Heavy precipitations  Wind > 20 kt
SIGMETs :     Misc.  Thunderstorms  Icing  Turbulence  Mountain Waves  Volcanic Ashes






- Airport Elevation : 1766 ft


ETHL - Laupheim AB

CURRENT METAR :
  • 231320Z 09008KT 9999 -RASN FEW020 BKN026 03/M01 Q1014 BLU BLU TEMPO WHT

EXPIRED METARs :
  • 231220Z 06010KT 9999 -RASN FEW018 BKN022 04/M01 Q1014 WHT BLU TEMPO WHT
  • 231120Z 06012KT 9999 -RASN BKN020 03/M01 Q1014 WHT BLU TEMPO WHT
  • 231020Z 05012KT 9999 BKN020 03/M01 Q1014 WHT BLU TEMPO WHT
  • 230920Z 04009KT 9999 BKN020 04/M01 Q1014 WHT BLU TEMPO WHT

TAF TAF ETHL
Valid from the 23 at 14:00 until the 23 at 23:00 UTC


231318Z 2314/2323 05008KT 9999 NSW FEW020 BKN040
TEMPO 2314/2320 06008G18KT 5000 -RASN BKN020
BECMG 2319/2321 24004KT 9999 NSW BKN040



MET'MAP, your aeronautical weather chart ! - Copyright ORBIFLY December 2007 - Disclaimer

ORBIFLY MET'MAP TEAM :

Programming & Development : Alexandra Zaïnal
Original concept : Baudouin d'Aumeries
Technical & hardware support : Manuel Goepfert
Assistance : Marc-Olivier Méhu




SOURCES & CREDITS :

   NOAA